Time;durP1;ratioP1;P1;durP2;ratioP2;P2;SDS_P1;SDS_P2;PMS_P1;PMS_P2;Temp;Humidity;BMP_temperature;BMP_pressure;BME280_temperature;BME280_humidity;BME280_pressure;Samples;Min_cycle;Max_cycle;Signal;HPM_P1;HPM_P2
2023/05/01 12:17:03;;;;;;;2.65;1.92;;;;;;;27.13;16.76;100697.97;1887064;76;27388;-63
2023/05/01 12:19:29;;;;;;;4.50;3.10;;;;;;;26.52;16.52;100697.73;1852545;77;25388;-65
2023/05/01 12:22:08;;;;;;;5.05;2.92;;;;;;;26.13;16.93;100700.97;1858057;77;27502;-65
2023/05/01 12:24:36;;;;;;;9.75;5.37;;;;;;;25.76;17.03;100698.20;1787782;80;25476;-64
2023/05/01 12:27:03;;;;;;;5.72;2.33;;;;;;;25.34;17.68;100678.59;1820273;78;25532;-63
2023/05/01 12:29:48;;;;;;;5.20;2.50;;;;;;;25.47;17.59;100679.52;1788077;80;25588;-63
2023/05/01 12:32:15;;;;;;;5.62;2.50;;;;;;;25.15;17.93;100673.48;1820429;78;25392;-62
2023/05/01 12:34:42;;;;;;;8.08;3.83;;;;;;;25.35;18.07;100682.13;1788059;80;27458;-64
2023/05/01 12:37:09;;;;;;;4.83;2.65;;;;;;;25.23;18.02;100677.02;1820345;78;25550;-69
2023/05/01 12:39:41;;;;;;;3.25;2.83;;;;;;;25.07;18.66;100672.70;1788177;80;25572;-69
2023/05/01 12:42:26;;;;;;;5.28;2.45;;;;;;;25.35;18.83;100662.18;1820368;78;25549;-69
2023/05/01 12:45:00;;;;;;;63.50;60.05;;;;;;;25.47;18.14;100673.41;1788086;80;25390;-69
2023/05/01 12:47:26;;;;;;;66.05;62.45;;;;;;;25.24;17.68;100666.14;1820411;78;28033;-64
2023/05/01 12:50:03;;;;;;;5.97;2.72;;;;;;;24.80;17.94;100653.00;1783135;80;25665;-65
2023/05/01 12:52:30;;;;;;;5.20;2.77;;;;;;;24.61;18.18;100652.23;1820489;78;25385;-66
2023/05/01 12:55:06;;;;;;;4.10;3.00;;;;;;;24.72;18.24;100648.66;1788062;80;25561;-65
2023/05/01 12:57:34;;;;;;;7.12;2.47;;;;;;;24.73;18.66;100643.34;1820477;78;25395;-65
2023/05/01 13:00:04;;;;;;;6.28;5.45;;;;;;;24.70;17.17;100646.30;1788155;80;28106;-65
2023/05/01 13:02:46;;;;;;;5.20;2.58;;;;;;;24.32;18.42;100636.83;1820337;78;25655;-64
2023/05/01 13:05:12;;;;;;;37.90;35.20;;;;;;;24.32;18.56;100643.73;1788071;80;25583;-65
2023/05/01 13:07:39;;;;;;;6.42;4.60;;;;;;;24.01;18.42;100636.41;1820361;78;25378;-65
2023/05/01 13:10:07;;;;;;;6.28;2.33;;;;;;;23.58;18.92;100635.70;1756154;80;25415;-65
2023/05/01 13:12:39;;;;;;;6.03;5.55;;;;;;;23.45;19.05;100632.48;1820432;78;27536;-65
2023/05/01 13:15:08;;;;;;;4.05;2.22;;;;;;;23.48;19.29;100631.72;1782754;79;25799;-65
2023/05/01 13:17:35;;;;;;;3.52;2.30;;;;;;;23.41;19.26;100634.45;1769528;81;25555;-65
2023/05/01 13:20:04;;;;;;;4.35;2.30;;;;;;;23.12;19.19;100629.38;1769300;81;25567;-66
2023/05/01 13:22:35;;;;;;;;;;;;;;;23.03;19.18;100633.05;1772043;81;25397;-65
2023/05/01 13:25:06;;;;;;;4.47;2.33;;;;;;;23.00;18.98;100627.70;1769380;81;28112;-65
2023/05/01 13:27:33;;;;;;;4.15;2.05;;;;;;;22.96;19.45;100614.50;1765780;81;25577;-63
2023/05/01 13:30:11;;;;;;;4.95;2.10;;;;;;;23.30;19.58;100613.69;1768749;81;25554;-72
2023/05/01 13:32:41;;;;;;;2.75;1.90;;;;;;;23.57;19.32;100609.86;1768747;81;25630;-70
2023/05/01 13:35:09;;;;;;;3.62;2.02;;;;;;;23.54;19.15;100603.73;1768808;81;25378;-69
2023/05/01 13:37:38;;;;;;;4.12;2.45;;;;;;;23.34;19.48;100601.88;1769011;81;27640;-71
2023/05/01 13:40:07;;;;;;;5.60;2.70;;;;;;;23.36;19.59;100600.90;1768891;81;25885;-70
2023/05/01 13:42:36;;;;;;;4.78;2.10;;;;;;;23.40;19.64;100594.82;1768932;81;25406;-68
2023/05/01 13:45:05;;;;;;;5.75;2.83;;;;;;;23.55;20.00;100592.87;1768869;81;25457;-68
2023/05/01 13:47:43;;;;;;;4.80;2.87;;;;;;;23.67;19.87;100590.55;1768827;81;25418;-67
2023/05/01 13:50:16;;;;;;;4.33;2.65;;;;;;;23.63;19.33;100593.91;1768770;81;27644;-68
2023/05/01 13:52:44;;;;;;;11.30;8.80;;;;;;;23.34;19.29;100596.36;1768985;81;25618;-70
2023/05/01 13:55:12;;;;;;;6.97;3.22;;;;;;;23.00;19.01;100589.09;1768797;81;25642;-67
2023/05/01 13:57:41;;;;;;;6.15;2.85;;;;;;;22.62;19.24;100592.63;1768741;81;25651;-68
2023/05/01 14:00:11;;;;;;;6.13;2.87;;;;;;;22.55;19.74;100590.61;1769048;81;25552;-67
2023/05/01 14:02:44;;;;;;;3.62;2.90;;;;;;;22.47;19.60;100591.73;1768291;81;27480;-68
2023/05/01 14:05:11;;;;;;;4.70;3.35;;;;;;;22.35;19.54;100592.05;1768690;81;25558;-69
2023/05/01 14:07:57;;;;;;;5.03;2.50;;;;;;;22.28;19.64;100575.47;1768740;81;25469;-69
2023/05/01 14:10:27;;;;;;;4.08;3.08;;;;;;;22.35;19.46;100577.67;1768777;81;25548;-70
2023/05/01 14:12:58;;;;;;;7.67;2.65;;;;;;;22.35;20.09;100578.27;1768886;81;25661;-70
2023/05/01 14:15:25;;;;;;;7.30;3.27;;;;;;;22.33;20.10;100575.11;1769251;79;27467;-68
2023/05/01 14:17:52;;;;;;;9.85;4.47;;;;;;;22.18;20.39;100574.95;1781881;80;25682;-64
2023/05/01 14:20:19;;;;;;;5.30;3.65;;;;;;;22.20;20.64;100571.82;1781897;79;25186;-65
2023/05/01 14:22:52;;;;;;;5.85;2.50;;;;;;;22.23;20.22;100569.69;1759294;81;26129;-64
2023/05/01 14:25:26;;;;;;;6.12;2.72;;;;;;;22.19;20.29;100561.99;1776209;80;25402;-66
2023/05/01 14:27:54;;;;;;;4.90;2.20;;;;;;;22.23;20.53;100562.80;1759285;81;28447;-65
2023/05/01 14:30:27;;;;;;;6.30;3.10;;;;;;;22.16;20.23;100563.53;1776057;80;25556;-65
2023/05/01 14:32:55;;;;;;;6.33;2.27;;;;;;;22.09;19.93;100564.86;1758605;81;25608;-65
2023/05/01 14:35:24;;;;;;;4.87;2.22;;;;;;;21.89;19.82;100551.89;1774926;80;25750;-66
2023/05/01 14:37:50;;;;;;;4.62;2.37;;;;;;;21.83;20.33;100552.84;1758355;81;25716;-65
2023/05/01 14:40:21;;;;;;;5.87;2.47;;;;;;;21.92;20.65;100551.14;1776041;80;27615;-68
2023/05/01 14:42:47;;;;;;;6.22;2.52;;;;;;;21.92;20.77;100545.63;1757831;81;25861;-68
2023/05/01 14:45:16;;;;;;;4.22;2.87;;;;;;;21.91;20.93;100546.02;1776137;80;25618;-66
2023/05/01 14:47:47;;;;;;;4.37;2.42;;;;;;;21.75;20.85;100546.27;1759261;81;25453;-69
2023/05/01 14:50:22;;;;;;;5.20;2.75;;;;;;;21.45;21.04;100547.11;1776141;80;25390;-71
2023/05/01 14:52:57;;;;;;;5.45;2.47;;;;;;;21.31;21.35;100548.34;1759260;81;27529;-70
2023/05/01 14:55:32;;;;;;;3.37;2.15;;;;;;;21.19;21.19;100537.01;1775993;80;25522;-65
2023/05/01 14:57:57;;;;;;;5.00;2.30;;;;;;;21.00;21.24;100531.09;1759156;81;25460;-63
2023/05/01 15:00:25;;;;;;;3.45;2.15;;;;;;;20.90;21.47;100525.66;1776054;80;25613;-63
2023/05/01 15:02:51;;;;;;;4.90;2.35;;;;;;;20.81;21.93;100531.45;1759228;81;25444;-63
2023/05/01 15:05:17;;;;;;;4.97;2.42;;;;;;;20.78;22.08;100534.16;1776077;80;27395;-65
2023/05/01 15:07:44;;;;;;;6.17;2.55;;;;;;;20.61;22.00;100529.38;1759114;81;25480;-64
2023/05/01 15:10:11;;;;;;;6.08;2.60;;;;;;;20.43;22.27;100530.52;1776051;80;25538;-63
2023/05/01 15:12:50;;;;;;;5.58;2.35;;;;;;;20.25;22.60;100528.08;1759152;81;27315;-63
2023/05/01 15:15:17;;;;;;;5.05;2.35;;;;;;;20.14;22.63;100534.20;1776196;80;25405;-63
2023/05/01 15:17:44;;;;;;;2.37;2.10;;;;;;;20.01;22.46;100538.29;1740215;79;27799;-63
2023/05/01 15:20:12;;;;;;;4.03;2.15;;;;;;;19.87;22.56;100524.31;1760259;81;27374;-64
2023/05/01 15:22:39;;;;;;;7.47;2.58;;;;;;;19.77;22.68;100523.78;1760186;81;25407;-63
2023/05/01 15:25:09;;;;;;;4.05;2.30;;;;;;;19.65;22.66;100519.00;1760203;81;25497;-63
2023/05/01 15:27:35;;;;;;;4.97;2.42;;;;;;;19.49;22.81;100514.42;1760331;81;25563;-64
2023/05/01 15:30:04;;;;;;;4.45;2.17;;;;;;;19.37;22.84;100505.78;1760245;81;27621;-62
2023/05/01 15:32:31;;;;;;;7.55;3.10;;;;;;;19.26;22.51;100506.17;1760398;81;25590;-64
2023/05/01 15:34:57;;;;;;;10.93;4.30;;;;;;;19.06;22.76;100506.77;1760212;81;25400;-64
2023/05/01 15:37:24;;;;;;;4.10;2.50;;;;;;;18.97;22.99;100504.83;1760116;81;25614;-64
2023/05/01 15:39:51;;;;;;;5.55;2.30;;;;;;;18.90;23.01;100497.80;1760291;81;25397;-64
2023/05/01 15:42:19;;;;;;;7.35;2.65;;;;;;;18.81;22.99;100493.33;1760209;81;27577;-60
2023/05/01 15:44:46;;;;;;;3.83;2.22;;;;;;;18.70;23.11;100484.08;1760148;81;25652;-58
2023/05/01 15:47:14;;;;;;;5.08;2.75;;;;;;;18.65;23.25;100488.48;1760227;81;25630;-57
2023/05/01 15:49:40;;;;;;;4.53;2.30;;;;;;;18.59;23.33;100492.08;1760194;81;25424;-57
2023/05/01 15:52:07;;;;;;;5.08;2.15;;;;;;;18.51;23.46;100479.38;1760205;81;25458;-61
2023/05/01 15:54:33;;;;;;;5.47;2.02;;;;;;;18.47;23.71;100485.34;1760377;81;26862;-61
2023/05/01 15:57:02;;;;;;;5.25;2.52;;;;;;;18.35;23.91;100480.77;1760215;81;25709;-61
2023/05/01 15:59:29;;;;;;;6.97;2.30;;;;;;;18.23;24.10;100480.31;1760424;81;25538;-61
2023/05/01 16:01:55;;;;;;;5.62;2.12;;;;;;;18.19;24.40;100482.19;1759542;81;25885;-59
2023/05/01 16:04:22;;;;;;;6.33;2.08;;;;;;;18.16;24.74;100471.94;1758834;81;25659;-61
2023/05/01 16:06:48;;;;;;;4.75;2.08;;;;;;;18.16;24.64;100472.52;1758846;81;27460;-59
2023/05/01 16:09:14;;;;;;;6.30;2.05;;;;;;;18.11;24.96;100483.16;1758772;81;25639;-59
2023/05/01 16:11:40;;;;;;;3.52;2.70;;;;;;;18.02;25.01;100483.94;1758858;81;25719;-59
2023/05/01 16:14:08;;;;;;;10.90;3.60;;;;;;;17.92;25.18;100477.84;1758835;81;25689;-59
2023/05/01 16:16:35;;;;;;;10.35;2.65;;;;;;;17.90;25.45;100473.88;1759032;81;25680;-59
2023/05/01 16:19:02;;;;;;;5.95;2.40;;;;;;;17.85;25.56;100480.95;1776414;79;28178;-59
2023/05/01 16:21:28;;;;;;;4.05;2.40;;;;;;;17.76;25.61;100477.59;1801307;79;25591;-59
2023/05/01 16:23:56;;;;;;;5.03;2.85;;;;;;;17.70;25.89;100470.23;1801330;79;25643;-57
2023/05/01 16:26:28;;;;;;;5.22;2.92;;;;;;;17.66;26.02;100473.47;1801305;79;25993;-59
2023/05/01 16:29:00;;;;;;;4.55;2.95;;;;;;;17.61;26.11;100481.93;1774253;79;25627;-59
2023/05/01 16:31:29;;;;;;;5.75;3.77;;;;;;;17.58;26.42;100479.89;1801390;79;27808;-59
2023/05/01 16:33:56;;;;;;;6.30;2.40;;;;;;;17.53;26.58;100485.83;1801378;79;25588;-61
2023/05/01 16:36:22;;;;;;;9.40;3.20;;;;;;;17.47;26.72;100476.31;1801309;79;25503;-58
2023/05/01 16:38:48;;;;;;;8.40;2.90;;;;;;;17.45;27.14;100484.63;1801258;79;25664;-60
2023/05/01 16:41:17;;;;;;;4.58;2.65;;;;;;;17.37;27.04;100472.73;1801381;79;25540;-61
2023/05/01 16:43:44;;;;;;;7.50;2.85;;;;;;;17.31;27.26;100474.12;1801603;79;27472;-60
2023/05/01 16:46:19;;;;;;;6.12;2.77;;;;;;;17.23;27.45;100464.13;1801221;79;25479;-58
2023/05/01 16:48:43;;;;;;;5.60;2.92;;;;;;;17.17;27.57;100454.82;1799707;79;25397;-59
2023/05/01 16:51:10;;;;;;;5.50;2.77;;;;;;;17.15;27.87;100460.43;1801327;79;25684;-58
2023/05/01 16:53:37;;;;;;;6.95;2.65;;;;;;;17.07;27.84;100458.06;1801355;79;25672;-62
2023/05/01 16:56:05;;;;;;;6.72;3.08;;;;;;;17.02;28.09;100452.06;1801338;79;28610;-59
2023/05/01 16:58:31;;;;;;;11.85;3.30;;;;;;;16.95;28.29;100457.54;1800929;79;25554;-60
2023/05/01 17:00:57;;;;;;;7.30;2.77;;;;;;;16.90;28.36;100452.33;1790101;80;25564;-58
2023/05/01 17:03:23;;;;;;;4.97;2.90;;;;;;;16.86;28.38;100452.02;1790161;80;25754;-59
2023/05/01 17:05:50;;;;;;;7.83;3.50;;;;;;;16.80;28.65;100454.97;1790257;80;25409;-60
2023/05/01 17:08:16;;;;;;;6.20;2.77;;;;;;;16.74;28.75;100455.56;1790248;80;27517;-62
2023/05/01 17:10:43;;;;;;;6.47;2.87;;;;;;;16.67;29.05;100458.06;1790221;80;25384;-61
2023/05/01 17:13:13;;;;;;;5.37;2.77;;;;;;;16.59;29.05;100452.98;1790237;80;25625;-62
2023/05/01 17:15:38;;;;;;;4.47;2.37;;;;;;;16.50;29.20;100451.76;1790303;80;25629;-57
2023/05/01 17:18:04;;;;;;;5.97;3.15;;;;;;;16.44;29.36;100453.13;1790199;80;25389;-59
2023/05/01 17:20:30;;;;;;;6.70;3.10;;;;;;;16.34;29.54;100454.97;1790242;79;27481;-59
2023/05/01 17:22:56;;;;;;;4.65;2.98;;;;;;;16.25;29.73;100449.64;1790178;80;25411;-62
2023/05/01 17:25:23;;;;;;;8.03;3.00;;;;;;;16.17;29.75;100449.97;1790245;80;25509;-62
2023/05/01 17:27:49;;;;;;;7.00;2.80;;;;;;;16.09;29.72;100444.64;1790215;79;25513;-62
2023/05/01 17:30:17;;;;;;;5.78;2.90;;;;;;;15.99;29.88;100446.70;1790227;80;25622;-64
2023/05/01 17:32:43;;;;;;;7.17;3.65;;;;;;;15.92;30.03;100451.13;1790250;80;27568;-63
2023/05/01 17:35:10;;;;;;;7.60;3.33;;;;;;;15.83;30.03;100447.97;1790183;79;25767;-61
2023/05/01 17:37:38;;;;;;;26.70;18.57;;;;;;;15.78;30.12;100454.19;1790185;80;25498;-61
2023/05/01 17:40:07;;;;;;;10.53;4.55;;;;;;;15.72;30.04;100455.54;1790177;79;25586;-59
2023/05/01 17:42:36;;;;;;;7.62;3.40;;;;;;;15.63;30.20;100449.63;1790228;80;25594;-58
2023/05/01 17:45:06;;;;;;;10.30;3.75;;;;;;;15.55;30.38;100447.78;1789569;80;27448;-58
2023/05/01 17:47:40;;;;;;;6.53;3.35;;;;;;;15.45;30.71;100437.32;1790226;80;25882;-62
2023/05/01 17:50:07;;;;;;;8.00;3.90;;;;;;;15.35;30.63;100444.57;1789824;80;25611;-63
2023/05/01 17:52:33;;;;;;;6.58;3.70;;;;;;;15.23;30.97;100446.70;1790325;80;25605;-62
2023/05/01 17:54:59;;;;;;;10.30;4.40;;;;;;;15.13;30.85;100441.09;1790221;80;25384;-63
2023/05/01 17:57:26;;;;;;;7.90;3.75;;;;;;;15.02;31.10;100441.31;1763653;80;27493;-63
2023/05/01 17:59:52;;;;;;;9.05;4.30;;;;;;;14.93;31.00;100448.17;1790097;80;25407;-63
2023/05/01 18:02:19;;;;;;;11.80;4.12;;;;;;;14.83;31.29;100445.31;1790139;80;25629;-63
2023/05/01 18:04:48;;;;;;;7.35;3.62;;;;;;;14.72;31.56;100446.84;1790117;80;27671;-63
2023/05/01 18:07:13;;;;;;;5.70;3.45;;;;;;;14.63;31.46;100454.30;1789798;80;25458;-63
2023/05/01 18:09:39;;;;;;;17.23;7.15;;;;;;;14.52;31.69;100453.30;1790192;80;27487;-63
2023/05/01 18:12:05;;;;;;;9.70;4.35;;;;;;;14.42;31.74;100448.25;1790071;80;25475;-63
2023/05/01 18:14:32;;;;;;;12.40;5.33;;;;;;;14.31;31.87;100450.55;1790212;79;25376;-64
2023/05/01 18:16:59;;;;;;;8.93;5.53;;;;;;;14.19;32.18;100448.53;1790140;79;25589;-63
2023/05/01 18:19:25;;;;;;;11.45;5.50;;;;;;;14.12;32.56;100447.48;1790112;80;25547;-64
2023/05/01 18:21:52;;;;;;;11.88;5.62;;;;;;;14.01;32.49;100451.93;1790158;80;27579;-63
2023/05/01 18:24:18;;;;;;;15.83;5.62;;;;;;;13.91;32.78;100449.59;1790161;80;25588;-63
2023/05/01 18:26:44;;;;;;;10.88;5.95;;;;;;;13.80;32.76;100452.42;1790183;80;25389;-62
2023/05/01 18:29:12;;;;;;;10.60;5.40;;;;;;;13.71;33.00;100453.82;1790165;80;25547;-62
2023/05/01 18:31:39;;;;;;;14.55;7.08;;;;;;;13.60;33.47;100452.58;1790268;79;25648;-62
2023/05/01 18:34:06;;;;;;;19.23;6.78;;;;;;;13.50;33.57;100453.75;1790279;80;27618;-62
2023/05/01 18:36:32;;;;;;;14.47;6.42;;;;;;;13.39;33.40;100453.85;1790131;80;25630;-63
2023/05/01 18:39:00;;;;;;;14.25;7.80;;;;;;;13.29;33.61;100452.80;1790151;79;25565;-63
2023/05/01 18:41:27;;;;;;;13.75;6.45;;;;;;;13.21;34.19;100450.33;1790168;79;25633;-63
2023/05/01 18:43:53;;;;;;;15.20;6.35;;;;;;;13.12;34.54;100450.92;1790218;79;25606;-62
2023/05/01 18:46:20;;;;;;;16.48;7.03;;;;;;;13.01;34.61;100447.19;1790195;80;28088;-55
2023/05/01 18:48:46;;;;;;;39.60;21.33;;;;;;;12.95;34.89;100447.09;1790100;79;25610;-62
2023/05/01 18:51:13;;;;;;;31.77;18.32;;;;;;;12.87;35.09;100448.72;1790146;80;25515;-63
2023/05/01 18:53:39;;;;;;;26.05;16.65;;;;;;;12.82;34.96;100454.30;1790274;80;26134;-63
2023/05/01 18:56:08;;;;;;;19.30;9.85;;;;;;;12.78;35.18;100462.83;1790296;79;25585;-62
2023/05/01 18:58:34;;;;;;;22.05;11.48;;;;;;;12.74;35.14;100461.09;1790085;80;27493;-64
2023/05/01 19:01:00;;;;;;;22.42;15.08;;;;;;;12.68;35.57;100458.55;1790140;80;25441;-65
2023/05/01 19:03:28;;;;;;;19.25;7.75;;;;;;;12.65;35.77;100463.24;1790195;80;25459;-64
2023/05/01 19:05:54;;;;;;;17.45;7.08;;;;;;;12.60;35.76;100459.87;1790220;80;25568;-64
2023/05/01 19:08:21;;;;;;;16.52;6.25;;;;;;;12.55;36.15;100458.67;1790231;80;25644;-64
2023/05/01 19:10:47;;;;;;;12.68;6.72;;;;;;;12.49;36.13;100454.75;1790166;80;28154;-63
2023/05/01 19:13:13;;;;;;;12.70;7.03;;;;;;;12.42;36.50;100453.08;1790052;80;25369;-62
2023/05/01 19:15:40;;;;;;;10.85;6.22;;;;;;;12.39;36.88;100446.13;1789914;79;25580;-61
2023/05/01 19:18:06;;;;;;;14.30;6.67;;;;;;;12.36;37.03;100448.12;1789253;80;25648;-61
2023/05/01 19:20:33;;;;;;;14.50;7.08;;;;;;;12.29;37.00;100449.40;1785213;80;25611;-58
2023/05/01 19:22:59;;;;;;;11.60;6.42;;;;;;;12.25;37.14;100445.70;1783226;80;28117;-60
2023/05/01 19:25:25;;;;;;;13.62;6.50;;;;;;;12.18;37.37;100447.30;1783086;80;25546;-59
2023/05/01 19:27:52;;;;;;;13.08;7.35;;;;;;;12.13;37.55;100446.31;1783289;80;25566;-60
2023/05/01 19:30:18;;;;;;;13.38;6.60;;;;;;;12.10;37.42;100434.74;1783181;80;25683;-59
2023/05/01 19:32:45;;;;;;;13.03;7.15;;;;;;;12.06;37.67;100435.70;1783256;80;25586;-58
2023/05/01 19:35:11;;;;;;;13.30;6.80;;;;;;;12.02;37.88;100438.79;1783220;80;27476;-59
2023/05/01 19:37:38;;;;;;;13.45;7.42;;;;;;;11.96;37.96;100425.95;1783066;80;25599;-61
2023/05/01 19:40:07;;;;;;;12.73;7.42;;;;;;;11.90;38.25;100421.20;1783171;80;25530;-58
2023/05/01 19:42:34;;;;;;;16.10;7.63;;;;;;;11.87;38.48;100415.63;1783508;80;25567;-60
2023/05/01 19:45:01;;;;;;;12.20;7.12;;;;;;;11.82;38.60;100416.55;1783167;80;25613;-59
2023/05/01 19:47:27;;;;;;;13.18;7.00;;;;;;;11.78;38.77;100420.98;1783192;80;27559;-60
2023/05/01 19:49:53;;;;;;;16.17;7.22;;;;;;;11.73;38.96;100427.37;1783116;80;32801;-59
2023/05/01 19:52:20;;;;;;;17.27;7.15;;;;;;;11.68;38.85;100418.02;1783156;80;25475;-59
2023/05/01 19:54:46;;;;;;;15.05;7.00;;;;;;;11.63;39.21;100420.88;1783156;80;25736;-59
2023/05/01 19:57:12;;;;;;;13.05;7.17;;;;;;;11.59;39.26;100412.58;1783199;80;25493;-59
2023/05/01 19:59:40;;;;;;;12.70;7.10;;;;;;;11.57;39.49;100416.13;1783152;80;27500;-59
2023/05/01 20:02:06;;;;;;;17.12;7.33;;;;;;;11.53;39.62;100414.38;1783088;80;25795;-60
2023/05/01 20:04:33;;;;;;;13.10;6.55;;;;;;;11.50;39.58;100414.43;1783234;80;25609;-61
2023/05/01 20:07:01;;;;;;;13.48;6.53;;;;;;;11.47;39.68;100410.98;1783100;80;25496;-61
2023/05/01 20:09:46;;;;;;;13.25;6.67;;;;;;;11.45;39.68;100407.00;1799152;79;25451;-61
2023/05/01 20:12:12;;;;;;;11.65;6.97;;;;;;;11.39;39.83;100409.03;1799007;79;27558;-57
2023/05/01 20:14:38;;;;;;;52.35;48.00;;;;;;;11.36;39.86;100408.32;1798967;79;25391;-57
2023/05/01 20:17:06;;;;;;;84.65;78.70;;;;;;;11.31;39.97;100403.83;1799071;79;25631;-58
2023/05/01 20:19:33;;;;;;;44.33;40.63;;;;;;;11.26;40.07;100404.53;1797306;79;25530;-60
2023/05/01 20:22:09;;;;;;;49.38;45.55;;;;;;;11.25;40.27;100408.34;1787255;80;25424;-58
2023/05/01 20:32:12;;;;;;;17.32;7.03;;;;;;;11.13;40.24;100399.42;1790248;78;25172;-62
2023/05/01 20:34:37;;;;;;;;;;;;;;;11.08;40.56;100397.64;1758193;81;25534;-60
2023/05/01 20:37:04;;;;;;;11.85;5.40;;;;;;;11.06;40.66;100399.08;1737626;82;25392;-58
2023/05/01 20:39:30;;;;;;;13.30;5.92;;;;;;;11.00;40.66;100399.77;1737733;82;27545;-59
2023/05/01 20:41:58;;;;;;;27.52;13.88;;;;;;;10.96;40.58;100402.83;1755945;81;25612;-61
2023/05/01 20:44:24;;;;;;;46.20;32.00;;;;;;;10.96;40.90;100415.00;1756101;81;25511;-60
2023/05/01 20:46:50;;;;;;;13.25;8.58;;;;;;;10.92;40.98;100404.00;1755975;81;25484;-56
2023/05/01 20:49:16;;;;;;;13.40;6.53;;;;;;;10.91;40.88;100401.03;1756050;81;25385;-60
2023/05/01 20:51:42;;;;;;;12.53;6.47;;;;;;;10.88;40.98;100400.86;1756032;81;27518;-58
2023/05/01 20:54:09;;;;;;;15.05;6.35;;;;;;;10.83;41.20;100398.53;1755989;81;25480;-59
2023/05/01 20:56:37;;;;;;;13.85;6.80;;;;;;;10.80;41.10;100397.79;1756048;81;25609;-60
2023/05/01 20:59:03;;;;;;;13.15;6.30;;;;;;;10.76;41.60;100406.28;1755990;81;26029;-61
2023/05/01 21:01:33;;;;;;;12.93;6.28;;;;;;;10.70;41.46;100406.15;1734529;81;25585;-61
2023/05/01 21:03:59;;;;;;;16.12;6.90;;;;;;;10.67;41.36;100410.81;1756166;81;27751;-60
2023/05/01 21:06:26;;;;;;;13.88;7.25;;;;;;;10.63;41.47;100413.90;1755926;81;25595;-61
2023/05/01 21:08:52;;;;;;;18.27;11.53;;;;;;;10.60;41.68;100415.30;1756068;81;25451;-61
2023/05/01 21:11:23;;;;;;;84.15;77.72;;;;;;;10.57;41.63;100413.76;1737675;82;25581;-60
2023/05/01 21:13:49;;;;;;;31.60;28.75;;;;;;;10.52;42.02;100406.58;1733981;81;25494;-59
2023/05/01 21:16:18;;;;;;;12.82;6.50;;;;;;;10.47;42.26;100405.31;1756032;81;29783;-59
2023/05/01 21:18:45;;;;;;;15.72;6.70;;;;;;;10.42;42.35;100405.43;1756005;81;25546;-60
2023/05/01 21:21:14;;;;;;;34.35;22.05;;;;;;;10.36;42.56;100403.40;1755943;81;25600;-62
2023/05/01 21:23:46;;;;;;;98.30;90.12;;;;;;;10.33;43.64;100401.86;1755972;81;25577;-60
2023/05/01 21:26:14;;;;;;;100.10;90.92;;;;;;;10.34;42.89;100415.08;1756073;81;25420;-61
2023/05/01 21:28:42;;;;;;;88.95;82.45;;;;;;;10.32;43.07;100411.89;1756009;81;27461;-58
2023/05/01 21:31:12;;;;;;;18.87;16.23;;;;;;;10.31;43.37;100409.45;1755982;81;25379;-58
2023/05/01 21:33:41;;;;;;;89.28;82.82;;;;;;;10.30;43.00;100412.72;1755974;81;25539;-58
2023/05/01 21:36:07;;;;;;;64.25;59.60;;;;;;;10.25;43.10;100404.16;1755985;81;26094;-57
2023/05/01 21:38:34;;;;;;;83.67;77.67;;;;;;;10.21;43.21;100407.77;1756017;81;25620;-54
2023/05/01 21:41:02;;;;;;;87.12;80.83;;;;;;;10.15;43.41;100410.31;1756085;81;28374;-53
2023/05/01 21:43:33;;;;;;;81.40;75.72;;;;;;;10.10;43.36;100409.89;1755952;81;25551;-56
2023/05/01 21:46:00;;;;;;;84.67;78.25;;;;;;;10.04;43.61;100405.12;1756132;81;25578;-55
2023/05/01 21:48:28;;;;;;;85.67;79.32;;;;;;;10.00;43.52;100402.79;1755934;81;25616;-56
2023/05/01 21:50:55;;;;;;;82.72;76.55;;;;;;;9.93;43.91;100401.05;1756152;81;25637;-53
2023/05/01 21:53:21;;;;;;;83.33;77.37;;;;;;;9.87;43.99;100407.65;1756034;81;27641;-54
2023/05/01 21:55:47;;;;;;;80.57;75.03;;;;;;;9.81;44.19;100406.17;1755874;81;25774;-55
2023/05/01 21:58:14;;;;;;;84.28;78.45;;;;;;;9.75;44.32;100401.95;1755990;81;25555;-56
2023/05/01 22:00:40;;;;;;;85.75;79.65;;;;;;;9.71;44.39;100402.55;1755635;81;25739;-56
2023/05/01 22:03:07;;;;;;;82.15;76.28;;;;;;;9.69;44.50;100408.02;1755628;81;25467;-53
2023/05/01 22:05:34;;;;;;;81.20;75.00;;;;;;;9.62;44.75;100398.14;1755116;81;27436;-56
2023/05/01 22:08:00;;;;;;;14.45;6.20;;;;;;;9.58;45.00;100395.80;1756019;81;25467;-56
2023/05/01 22:10:27;;;;;;;12.50;6.15;;;;;;;9.56;45.11;100398.00;1756056;81;25654;-58
2023/05/01 22:12:53;;;;;;;11.30;6.12;;;;;;;9.51;45.11;100402.39;1756017;81;25646;-58
2023/05/01 22:15:20;;;;;;;29.82;27.13;;;;;;;9.45;45.13;100396.03;1755172;81;25639;-56
2023/05/01 22:17:46;;;;;;;15.28;6.22;;;;;;;9.39;45.51;100386.44;1755412;81;27630;-57
2023/05/01 22:20:13;;;;;;;14.28;9.65;;;;;;;9.33;45.77;100387.89;1757423;81;25533;-56
2023/05/01 22:22:41;;;;;;;81.08;75.22;;;;;;;9.28;45.52;100389.33;1769846;81;25436;-56
2023/05/01 22:25:10;;;;;;;79.22;73.47;;;;;;;9.20;46.12;100379.22;1769927;81;26296;-57
2023/05/01 22:27:37;;;;;;;81.53;75.75;;;;;;;9.15;46.02;100379.30;1769352;81;25682;-58
2023/05/01 22:30:05;;;;;;;46.20;42.80;;;;;;;9.10;46.27;100381.53;1769920;81;27601;-58
2023/05/01 22:32:32;;;;;;;10.28;5.78;;;;;;;9.08;46.26;100383.73;1769728;81;25659;-53
2023/05/01 22:34:58;;;;;;;86.22;79.80;;;;;;;9.05;46.12;100383.53;1769799;81;25589;-55
2023/05/01 22:37:25;;;;;;;58.52;54.42;;;;;;;9.00;46.53;100384.41;1769728;81;25809;-55
2023/05/01 22:39:52;;;;;;;80.15;74.60;;;;;;;8.93;46.71;100377.25;1769865;81;25558;-57
2023/05/01 22:42:18;;;;;;;61.35;56.42;;;;;;;8.89;47.01;100370.86;1769829;81;27579;-57
2023/05/01 22:44:45;;;;;;;80.32;74.32;;;;;;;8.86;47.22;100376.28;1769787;81;25570;-58
2023/05/01 22:47:11;;;;;;;84.10;77.82;;;;;;;8.82;47.46;100371.77;1743565;81;25444;-57
2023/05/01 22:49:38;;;;;;;13.83;5.08;;;;;;;8.80;47.30;100380.14;1769824;81;26092;-57
2023/05/01 22:52:04;;;;;;;18.45;13.30;;;;;;;8.79;47.31;100379.91;1769785;81;25460;-56
2023/05/01 22:54:31;;;;;;;83.42;77.03;;;;;;;8.76;47.63;100374.55;1769746;81;29644;-57
2023/05/01 22:56:57;;;;;;;58.83;54.73;;;;;;;8.70;47.81;100368.17;1769673;81;25636;-57
2023/05/01 22:59:24;;;;;;;58.40;54.18;;;;;;;8.66;47.79;100361.22;1769671;81;25533;-57
2023/05/01 23:01:51;;;;;;;16.20;6.72;;;;;;;7.85;47.77;100224.73;1769675;81;25569;-57
2023/05/01 23:04:17;;;;;;;11.38;5.58;;;;;;;8.62;47.82;100364.27;1769788;81;25590;-58
2023/05/01 23:06:43;;;;;;;11.65;6.12;;;;;;;8.57;47.89;100363.79;1769804;81;28177;-58
2023/05/01 23:09:10;;;;;;;14.93;5.53;;;;;;;8.52;47.94;100359.03;1769663;81;25403;-56
2023/05/01 23:11:40;;;;;;;13.80;6.28;;;;;;;8.47;48.42;100369.34;1769719;81;25566;-59
2023/05/01 23:14:06;;;;;;;9.48;5.58;;;;;;;8.41;48.62;100364.55;1769733;81;25601;-57
2023/05/01 23:16:41;;;;;;;8.90;5.33;;;;;;;8.36;48.42;100363.80;1769783;81;25626;-57
2023/05/01 23:19:23;;;;;;;10.50;5.65;;;;;;;8.32;49.23;100359.55;1769459;81;27558;-58
2023/05/01 23:21:54;;;;;;;13.78;5.87;;;;;;;8.25;48.82;100356.98;1769668;81;25858;-57
2023/05/01 23:24:21;;;;;;;13.18;6.33;;;;;;;8.18;49.21;100352.74;1749665;81;25860;-58
2023/05/01 23:26:47;;;;;;;15.32;6.03;;;;;;;8.14;49.23;100350.91;1758847;81;25664;-58
2023/05/01 23:29:17;;;;;;;9.65;5.50;;;;;;;8.10;49.49;100356.08;1758875;81;25618;-56
2023/05/01 23:31:46;;;;;;;12.47;6.15;;;;;;;8.07;49.37;100353.17;1758855;81;27569;-58
2023/05/01 23:34:16;;;;;;;11.93;5.65;;;;;;;8.01;49.43;100346.51;1758855;81;25459;-59
2023/05/01 23:36:46;;;;;;;10.55;5.35;;;;;;;7.96;49.75;100343.88;1758893;81;25646;-57
2023/05/01 23:39:15;;;;;;;11.28;6.22;;;;;;;7.94;49.99;100345.28;1758845;81;25509;-58
2023/05/01 23:41:42;;;;;;;8.48;5.37;;;;;;;7.91;50.11;100343.95;1758995;81;25492;-58
2023/05/01 23:44:08;;;;;;;9.53;5.05;;;;;;;7.90;50.30;100345.06;1758891;81;27490;-58
2023/05/01 23:46:36;;;;;;;12.78;5.45;;;;;;;7.88;50.47;100344.52;1758905;81;25567;-57
2023/05/01 23:49:03;;;;;;;12.35;5.97;;;;;;;7.84;50.91;100336.22;1758878;81;25629;-58